Aérodrome :
LOGIN :

S'inscrire | Disclaimer

   EN    FR    IT 

 










Légende :    VFR   VFR Marginal   IFR   IFR Intensif   IFR Très Intensif
Visi : 
Plafond : 
>= 8 km
>= 3000ft
5 à 8 km
1000 à 3000 ft
1500m à 5 km
500 à 1000 ft
800 à 1500m
200 à 500 ft
< 800m
< 200 ft
Symboles :   Orages  Brouillard  Fortes neiges  Fortes précipitations  Vent > 20 kt
SIGMETs :   Divers  Orages  Givrage  Turbulence  Onde Orograph.  Cendres Volcan.







- Altitude de l'aérodrome : 392 ft
- Code IATA : CDG
- Voir les cartes d'approche


LFPG - Paris-Aeroport Charles De Gaulle

DERNIER METAR :
  • 191000Z 20014KT 9999 SCT009 BKN016 09/07 Q1012 TEMPO SCT012TCU

METARs EXPIRÉS :
  • 190930Z 19013KT 9999 FEW010 BKN011 09/07 Q1012 TEMPO SCT012TCU
  • 190900Z 19015KT 9999 FEW010 SCT014 BKN040 09/07 Q1012 TEMPO SCT012 TCU
  • 190830Z 19015KT 9999 FEW009 BKN017 09/07 Q1012 TEMPO SCT012 TCU
  • 190800Z 19014KT 9999 VCSH BKN011 09/07 Q1011 TEMPO SCT012 TCU
  • 190730Z 19013KT 9999 BKN011 SCT130 09/07 Q1011 TEMPO SCT012 TCU

TAF TAF LFPG
Valide du 19 à 06h jusqu'au 20 à 12h UTC


190500Z 1906/2012 21012KT 9999 BKN020 TX09/1914Z TN06/2003Z
TEMPO 1906/1907 BKN007
PROB40
TEMPO 1907/1911 -SHRA SCT012TCU
TEMPO 1918/2006 -SHRA SCT012TCU
BECMG 2006/2008 22015G25KT
ATIS : +33 1 48 62 10 92
Pas de NOTAMs connus pour ce terrain.



MET'MAP, la Météo Aéronautique d'un coup d'oeil ! - Copyright ORBIFLY Décembre 2007 - Disclaimer

ORBIFLY MET'MAP TEAM :

Programmation & Développement : Alexandra Zaïnal
Conception & Développement : Baudouin d'Aumeries
Co-Programmation & Développement : Marc-Olivier Méhu
Soutien technique & logistique : Manuel Goepfert

Contact : metmap@orbifly.com




SOURCES & CREDITS :

   NOAA